Svitzer Setubal — CSYQ7 — position and weather

sailwx.info

Track history (hours):
 
Tides and Currents Weather Stations Pressure Air Temp Water Temp Dewpoint Dewpoint Depression Visibility Wind Speed Wind Dir Waves Ship Positions

Svitzer Setubal

Last reported at 2018-Jan-23 12:00 UTC. Time now 2018-Jan-23 12:04 UTC.
Position N 38°20' W 009°00'.

Length 33 m; draft 4.4 m.

Type: Tug. MMSI: 263602553.

Date/timePositionNaut miles runAvg speedWind from/ knotsBaromVisibWave heightAir tempDewpointWater temp
2018-Jan-23 12:00N 38°20' W 009°00'4 7.6
2018-Jan-23 11:30N 38°24' W 008°59'4 7.6
2018-Jan-23 11:00N 38°28' W 008°57'4 7.8
2018-Jan-23 10:30N 38°31' W 008°54'3 6.4
2018-Jan-23 10:00N 38°30' W 008°50'0 0.0
2018-Jan-23 09:17N 38°30' W 008°50'0 0.0
2018-Jan-23 08:57N 38°30' W 008°50'0 0.0
2018-Jan-23 08:27N 38°30' W 008°50'0 0.0
2018-Jan-23 07:59N 38°30' W 008°50'0 0.0
2018-Jan-23 07:23N 38°30' W 008°50'0 0.0
2018-Jan-23 06:58N 38°30' W 008°50'0 0.0
2018-Jan-23 06:23N 38°30' W 008°50'0 0.0
2018-Jan-23 06:00N 38°30' W 008°50'0 0.0
2018-Jan-23 05:29N 38°30' W 008°50'0 0.0
2018-Jan-23 05:01N 38°30' W 008°50'0 0.0
2018-Jan-23 04:30N 38°30' W 008°50'0 0.0
2018-Jan-23 04:00N 38°30' W 008°50'0 0.0
2018-Jan-23 03:30N 38°30' W 008°50'0 0.0
2018-Jan-23 03:01N 38°30' W 008°50'0 0.0
2018-Jan-23 02:30N 38°30' W 008°50'0 0.0
2018-Jan-23 02:00N 38°30' W 008°50'0 0.0
2018-Jan-23 01:30N 38°30' W 008°50'0 0.0
2018-Jan-23 01:00N 38°30' W 008°50'0 0.0
2018-Jan-23 00:30N 38°30' W 008°50'0 0.0
2018-Jan-23 00:00N 38°30' W 008°50'0 0.0
2018-Jan-22 22:39N 38°30' W 008°50'0 0.0
2018-Jan-22 22:27N 38°30' W 008°50'0 0.0
2018-Jan-22 22:00N 38°30' W 008°50'0 0.0
2018-Jan-22 21:28N 38°30' W 008°50'0 0.0
2018-Jan-22 20:51N 38°30' W 008°50'0 0.0
2018-Jan-22 20:28N 38°30' W 008°50'0 0.0
2018-Jan-22 20:00N 38°30' W 008°50'0 0.0
2018-Jan-22 19:24N 38°30' W 008°50'0 0.0
2018-Jan-22 19:00N 38°30' W 008°50'0 0.0
2018-Jan-22 18:30N 38°30' W 008°50'0 0.0
2018-Jan-22 18:00N 38°30' W 008°50'0 0.0
2018-Jan-22 17:30N 38°30' W 008°50'0 0.0
2018-Jan-22 17:00N 38°30' W 008°50'0 0.0
2018-Jan-22 16:30N 38°30' W 008°50'0 0.0
2018-Jan-22 16:00N 38°30' W 008°50'0 0.0
2018-Jan-22 15:30N 38°30' W 008°50'0 0.0
2018-Jan-22 14:59N 38°30' W 008°50'0 0.0
2018-Jan-22 14:30N 38°30' W 008°50'0 0.0
2018-Jan-22 14:00N 38°30' W 008°50'0 0.0
2018-Jan-22 13:27N 38°30' W 008°50'0 0.0
2018-Jan-22 13:00N 38°30' W 008°50'0 0.0
2018-Jan-22 12:31N 38°30' W 008°50'0 0.1
2018-Jan-22 12:01N 38°30' W 008°50'0 0.0
2018-Jan-22 11:30N 38°30' W 008°50'0 0.0
2018-Jan-22 10:57N 38°30' W 008°50'0 0.0
2018-Jan-22 10:27N 38°30' W 008°50'0 0.0
2018-Jan-22 10:00N 38°30' W 008°50'0 0.1
2018-Jan-22 09:20N 38°30' W 008°50'0 0.0
2018-Jan-22 08:50N 38°30' W 008°50'0 0.0
2018-Jan-22 08:23N 38°30' W 008°50'0 0.0
2018-Jan-22 08:00N 38°30' W 008°50'0 0.0
2018-Jan-22 07:29N 38°30' W 008°50'0 0.0
2018-Jan-22 06:57N 38°30' W 008°50'0 0.0
2018-Jan-22 06:25N 38°30' W 008°50'0 0.0
2018-Jan-22 06:00N 38°30' W 008°50'0 0.0
2018-Jan-22 05:30N 38°30' W 008°50'0 0.0
2018-Jan-22 04:58N 38°30' W 008°50'0 0.0
2018-Jan-22 04:28N 38°30' W 008°50'0 0.0
2018-Jan-22 04:00N 38°30' W 008°50'0 0.0
2018-Jan-22 03:30N 38°30' W 008°50'0 0.0
2018-Jan-22 02:57N 38°30' W 008°50'0 0.0
2018-Jan-22 02:30N 38°30' W 008°50'0 0.0
2018-Jan-22 02:00N 38°30' W 008°50'0 0.0
2018-Jan-22 01:28N 38°30' W 008°50'0 0.0
2018-Jan-22 01:00N 38°30' W 008°50'0 0.0
2018-Jan-22 00:30N 38°30' W 008°50'0 0.0
2018-Jan-21 23:58N 38°30' W 008°50'0 1.0
2018-Jan-21 23:30N 38°30' W 008°51'1 2.2
2018-Jan-21 22:58N 38°31' W 008°52'2 3.9
2018-Jan-21 22:28N 38°31' W 008°54'1 2.1
2018-Jan-21 22:00N 38°31' W 008°53'3 5.2
2018-Jan-21 21:30N 38°30' W 008°50'0 0.0
2018-Jan-21 20:56N 38°30' W 008°50'0 0.0
2018-Jan-21 20:30N 38°30' W 008°50'0 0.0
2018-Jan-21 20:00N 38°30' W 008°50'0 0.0
2018-Jan-21 19:30N 38°30' W 008°50'0 0.0
2018-Jan-21 18:59N 38°30' W 008°50'0 0.0
2018-Jan-21 18:30N 38°30' W 008°50'2 3.0
2018-Jan-21 18:01N 38°31' W 008°52'1 2.2
2018-Jan-21 17:28N 38°30' W 008°51'0 0.7
2018-Jan-21 17:00N 38°30' W 008°50'0 0.0
2018-Jan-21 16:26N 38°30' W 008°50'0 0.0
2018-Jan-21 15:58N 38°30' W 008°50'0 0.0
2018-Jan-21 15:31N 38°30' W 008°50'0 0.0
2018-Jan-21 14:53N 38°30' W 008°50'0 0.0
2018-Jan-21 14:29N 38°30' W 008°50'0 0.0
2018-Jan-21 13:59N 38°30' W 008°50'0 0.0
2018-Jan-21 13:27N 38°30' W 008°50'2 3.7
2018-Jan-21 13:00N 38°31' W 008°52'2 1.6
2018-Jan-21 11:56N 38°30' W 008°50'0 0.0
2018-Jan-21 11:29N 38°30' W 008°50'0 0.0
2018-Jan-21 10:56N 38°30' W 008°50'0 0.0
2018-Jan-21 10:28N 38°30' W 008°50'0 0.0
2018-Jan-21 09:53N 38°30' W 008°50'0 0.0
2018-Jan-21 09:29N 38°30' W 008°50'0 0.0
2018-Jan-21 08:55N 38°30' W 008°50'0 0.0
2018-Jan-21 08:29N 38°30' W 008°50'0 0.0
2018-Jan-21 08:00N 38°30' W 008°50'0 0.0
2018-Jan-21 07:30N 38°30' W 008°50'0 0.0
2018-Jan-21 07:01N 38°30' W 008°50'2 2.0
2018-Jan-21 06:16N 38°31' W 008°52'0 0.6
2018-Jan-21 06:00N 38°31' W 008°52'1 2.1
2018-Jan-21 05:20N 38°31' W 008°54'0 1.2
2018-Jan-21 05:00N 38°31' W 008°53'3 4.9
2018-Jan-21 04:27N 38°30' W 008°50'0 0.0
2018-Jan-21 03:58N 38°30' W 008°50'0 0.0
2018-Jan-21 03:30N 38°30' W 008°50'0 0.0
2018-Jan-21 03:00N 38°30' W 008°50'0 0.0
2018-Jan-21 02:30N 38°30' W 008°50'0 0.0
2018-Jan-21 02:00N 38°30' W 008°50'0 0.0
2018-Jan-21 01:29N 38°30' W 008°50'0 0.0
2018-Jan-21 01:00N 38°30' W 008°50'2 3.3
2018-Jan-21 00:30N 38°31' W 008°52'1 2.4
2018-Jan-21 00:00N 38°31' W 008°53'0 0.8
2018-Jan-20 23:23N 38°31' W 008°54'1 2.0
2018-Jan-20 23:00N 38°31' W 008°53'2 4.8
2018-Jan-20 22:30N 38°30' W 008°50'0 0.0
2018-Jan-20 21:50N 38°30' W 008°50'0 0.0
2018-Jan-20 21:22N 38°30' W 008°50'0 0.0
2018-Jan-20 20:47N 38°30' W 008°50'0 0.0
2018-Jan-20 20:30N 38°30' W 008°50'0 0.0
2018-Jan-20 19:58N 38°30' W 008°50'0 0.0
2018-Jan-20 19:30N 38°30' W 008°50'0 0.0
2018-Jan-20 19:00N 38°30' W 008°50'0 0.0
2018-Jan-20 18:20N 38°30' W 008°50'0 0.0
2018-Jan-20 18:00N 38°30' W 008°50'0 0.0
2018-Jan-20 17:30N 38°30' W 008°50'0 0.0
2018-Jan-20 17:00N 38°30' W 008°50'0 0.0
2018-Jan-20 16:30N 38°30' W 008°50'0 0.0
2018-Jan-20 16:00N 38°30' W 008°50'0 0.0
2018-Jan-20 15:30N 38°30' W 008°50'0 0.0
2018-Jan-20 15:00N 38°30' W 008°50'0 0.0
2018-Jan-20 14:30N 38°30' W 008°50'0 0.0
2018-Jan-20 14:00N 38°30' W 008°50'0 0.0
2018-Jan-20 13:30N 38°30' W 008°50'0 0.0
2018-Jan-20 13:00N 38°30' W 008°50'0 0.0
2018-Jan-20 12:29N 38°30' W 008°50'0 0.0
2018-Jan-20 12:00N 38°30' W 008°50'0 0.0
2018-Jan-20 11:27N 38°30' W 008°50'0 0.0
2018-Jan-20 11:00N 38°30' W 008°50'0 0.0
2018-Jan-20 10:30N 38°30' W 008°50'0 0.0
2018-Jan-20 10:01N 38°30' W 008°50'0 0.0
2018-Jan-20 09:30N 38°30' W 008°50'0 0.0
2018-Jan-20 09:01N 38°30' W 008°50'0 0.0
2018-Jan-20 08:29N 38°30' W 008°50'0 0.0
2018-Jan-20 08:00N 38°30' W 008°50'0 0.0
2018-Jan-20 07:30N 38°30' W 008°50'0 0.0
2018-Jan-20 07:00N 38°30' W 008°50'0 0.0
2018-Jan-20 06:30N 38°30' W 008°50'0 0.0
2018-Jan-20 06:00N 38°30' W 008°50'0 0.0
2018-Jan-20 05:31N 38°30' W 008°50'0 0.0
2018-Jan-20 05:01N 38°30' W 008°50'0 0.0
2018-Jan-20 04:31N 38°30' W 008°50'0 0.0
2018-Jan-20 04:01N 38°30' W 008°50'0 0.0
2018-Jan-20 03:30N 38°30' W 008°50'0 0.0
2018-Jan-20 03:00N 38°30' W 008°50'0 0.0
2018-Jan-20 02:29N 38°30' W 008°50'0 0.0
2018-Jan-20 02:00N 38°30' W 008°50'0 0.0
2018-Jan-20 01:30N 38°30' W 008°50'0 0.0
2018-Jan-20 00:59N 38°30' W 008°50'0 0.0
2018-Jan-20 00:26N 38°30' W 008°50'0 0.0
2018-Jan-20 00:01N 38°30' W 008°50'0 0.0
2018-Jan-19 23:29N 38°30' W 008°50'0 0.0
2018-Jan-19 22:59N 38°30' W 008°50'0 0.0
2018-Jan-19 22:29N 38°30' W 008°50'0 0.0
2018-Jan-19 22:00N 38°30' W 008°50'0 0.0
2018-Jan-19 21:31N 38°30' W 008°50'0 0.0
2018-Jan-19 21:00N 38°30' W 008°50'0 0.0
2018-Jan-19 20:30N 38°30' W 008°50'0 0.0
2018-Jan-19 20:00N 38°30' W 008°50'0 0.0
2018-Jan-19 19:30N 38°30' W 008°50'0 0.0
2018-Jan-19 19:00N 38°30' W 008°50'0 0.0
2018-Jan-19 18:31N 38°30' W 008°50'0 0.0
2018-Jan-19 17:50N 38°30' W 008°50'0 0.0
2018-Jan-19 17:30N 38°30' W 008°50'0 0.0
2018-Jan-19 16:56N 38°30' W 008°50'0 0.0
2018-Jan-19 16:17N 38°30' W 008°50'0 0.0
2018-Jan-19 15:57N 38°30' W 008°50'0 0.0
2018-Jan-19 15:29N 38°30' W 008°50'0 0.0
2018-Jan-19 15:00N 38°30' W 008°50'0 0.0
2018-Jan-19 14:29N 38°30' W 008°50'0 0.0
2018-Jan-19 13:59N 38°30' W 008°50'0 0.0
2018-Jan-19 13:28N 38°30' W 008°50'0 0.0
2018-Jan-19 12:59N 38°30' W 008°50'0 0.0
2018-Jan-19 12:30N 38°30' W 008°50'0 0.0
2018-Jan-19 11:59N 38°30' W 008°50'0 0.0
2018-Jan-19 11:13N 38°30' W 008°50'0 0.0
2018-Jan-19 10:54N 38°30' W 008°50'0 0.0
2018-Jan-19 10:29N 38°30' W 008°50'0 0.0
2018-Jan-19 09:55N 38°30' W 008°50'0 0.0
2018-Jan-19 09:25N 38°30' W 008°50'0 0.0
2018-Jan-19 08:53N 38°30' W 008°50'0 0.0
2018-Jan-19 08:14N 38°30' W 008°50'0 0.0
2018-Jan-19 08:00N 38°30' W 008°50'0 0.0
2018-Jan-19 07:30N 38°30' W 008°50'0 0.0
2018-Jan-19 06:56N 38°30' W 008°50'0 0.0
2018-Jan-19 06:30N 38°30' W 008°50'0 0.0
2018-Jan-19 06:01N 38°30' W 008°50'0 0.0
2018-Jan-19 05:18N 38°30' W 008°50'0 0.0
2018-Jan-19 04:42N 38°30' W 008°50'0 0.0
2018-Jan-19 04:25N 38°30' W 008°50'0 0.0
2018-Jan-19 03:49N 38°30' W 008°50'0 0.0
2018-Jan-19 03:30N 38°30' W 008°50'0 0.0
2018-Jan-19 03:00N 38°30' W 008°50'0 0.0
2018-Jan-19 02:30N 38°30' W 008°50'0 0.0
2018-Jan-19 01:59N 38°30' W 008°50'0 0.0
2018-Jan-19 01:29N 38°30' W 008°50'2 3.2
2018-Jan-19 01:00N 38°31' W 008°52'2 2.9
2018-Jan-19 00:28N 38°30' W 008°50'0 0.0
2018-Jan-19 00:01N 38°30' W 008°50'0 0.0
2018-Jan-18 23:25N 38°30' W 008°50'0 0.0
2018-Jan-18 23:00N 38°30' W 008°50'0 0.0
2018-Jan-18 22:27N 38°30' W 008°50'0 0.0
2018-Jan-18 21:58N 38°30' W 008°50'0 0.0
2018-Jan-18 21:30N 38°30' W 008°50'0 0.0
2018-Jan-18 21:00N 38°30' W 008°50'0 0.0
2018-Jan-18 20:26N 38°30' W 008°50'0 0.0
2018-Jan-18 20:00N 38°30' W 008°50'0 0.0
2018-Jan-18 19:30N 38°30' W 008°50'0 0.0
2018-Jan-18 19:00N 38°30' W 008°50'0 0.0
2018-Jan-18 18:30N 38°30' W 008°50'0 0.0
2018-Jan-18 18:00N 38°30' W 008°50'0 0.0
2018-Jan-18 17:30N 38°30' W 008°50'0 0.0
2018-Jan-18 17:00N 38°30' W 008°50'0 0.0
2018-Jan-18 16:26N 38°30' W 008°50'0 0.0
2018-Jan-18 15:57N 38°30' W 008°50'0 0.0
2018-Jan-18 15:30N 38°30' W 008°50'0 0.0
2018-Jan-18 14:57N 38°30' W 008°50'0 0.0
2018-Jan-18 14:30N 38°30' W 008°50'0 0.0
2018-Jan-18 13:55N 38°30' W 008°50'0 0.0
2018-Jan-18 13:30N 38°30' W 008°50'0 0.0
2018-Jan-18 13:00N 38°30' W 008°50'0 0.0
2018-Jan-18 12:30N 38°30' W 008°50'0 0.0
2018-Jan-18 11:59N 38°30' W 008°50'0 0.0
2018-Jan-18 11:30N 38°30' W 008°50'0 0.0
2018-Jan-18 11:01N 38°30' W 008°50'0 0.0
2018-Jan-18 10:31N 38°30' W 008°50'0 0.0
2018-Jan-18 10:00N 38°30' W 008°50'0 0.0
2018-Jan-18 09:30N 38°30' W 008°50'0 0.0
2018-Jan-18 09:00N 38°30' W 008°50'0 0.0
2018-Jan-18 08:31N 38°30' W 008°50'0 0.0
2018-Jan-18 08:00N 38°30' W 008°50'0 0.0
2018-Jan-18 07:30N 38°30' W 008°50'0 0.0
2018-Jan-18 07:00N 38°30' W 008°50'0 0.0
2018-Jan-18 06:29N 38°30' W 008°50'0 0.0
2018-Jan-18 06:01N 38°30' W 008°50'0 0.0
2018-Jan-18 05:31N 38°30' W 008°50'0 0.0
2018-Jan-18 05:00N 38°30' W 008°50'0 0.0
2018-Jan-18 04:31N 38°30' W 008°50'0 0.0
2018-Jan-18 04:01N 38°30' W 008°50'0 0.0
2018-Jan-18 03:31N 38°30' W 008°50'0 0.0
2018-Jan-18 03:00N 38°30' W 008°50'0 0.0
2018-Jan-18 02:30N 38°30' W 008°50'0 0.0
2018-Jan-18 02:00N 38°30' W 008°50'0 0.0
2018-Jan-18 01:25N 38°30' W 008°50'0 0.0
2018-Jan-18 01:00N 38°30' W 008°50'0 0.0
2018-Jan-17 23:49N 38°30' W 008°50'  
Track history (hours):
 
Tides and Currents Weather Stations Pressure Air Temp Water Temp Dewpoint Dewpoint Depression Visibility Wind Speed Wind Dir Waves Ship Positions

Svitzer Setubal

Last reported at 2018-Jan-23 12:00 UTC. Time now 2018-Jan-23 12:04 UTC.
Position N 38°20' W 009°00'.

Length 33 m; draft 4.4 m.

Type: Tug. MMSI: 263602553.

Date/timePositionNaut miles runAvg speedWind from/ knotsBaromVisibWave heightAir tempDewpointWater temp
2018-Jan-23 12:00N 38°20' W 009°00'4 7.6
2018-Jan-23 11:30N 38°24' W 008°59'4 7.6
2018-Jan-23 11:00N 38°28' W 008°57'4 7.8
2018-Jan-23 10:30N 38°31' W 008°54'3 6.4
2018-Jan-23 10:00N 38°30' W 008°50'0 0.0
2018-Jan-23 09:17N 38°30' W 008°50'0 0.0
2018-Jan-23 08:57N 38°30' W 008°50'0 0.0
2018-Jan-23 08:27N 38°30' W 008°50'0 0.0
2018-Jan-23 07:59N 38°30' W 008°50'0 0.0
2018-Jan-23 07:23N 38°30' W 008°50'0 0.0
2018-Jan-23 06:58N 38°30' W 008°50'0 0.0
2018-Jan-23 06:23N 38°30' W 008°50'0 0.0
2018-Jan-23 06:00N 38°30' W 008°50'0 0.0
2018-Jan-23 05:29N 38°30' W 008°50'0 0.0
2018-Jan-23 05:01N 38°30' W 008°50'0 0.0
2018-Jan-23 04:30N 38°30' W 008°50'0 0.0
2018-Jan-23 04:00N 38°30' W 008°50'0 0.0
2018-Jan-23 03:30N 38°30' W 008°50'0 0.0
2018-Jan-23 03:01N 38°30' W 008°50'0 0.0
2018-Jan-23 02:30N 38°30' W 008°50'0 0.0
2018-Jan-23 02:00N 38°30' W 008°50'0 0.0
2018-Jan-23 01:30N 38°30' W 008°50'0 0.0
2018-Jan-23 01:00N 38°30' W 008°50'0 0.0
2018-Jan-23 00:30N 38°30' W 008°50'0 0.0
2018-Jan-23 00:00N 38°30' W 008°50'0 0.0
2018-Jan-22 22:39N 38°30' W 008°50'0 0.0
2018-Jan-22 22:27N 38°30' W 008°50'0 0.0
2018-Jan-22 22:00N 38°30' W 008°50'0 0.0
2018-Jan-22 21:28N 38°30' W 008°50'0 0.0
2018-Jan-22 20:51N 38°30' W 008°50'0 0.0
2018-Jan-22 20:28N 38°30' W 008°50'0 0.0
2018-Jan-22 20:00N 38°30' W 008°50'0 0.0
2018-Jan-22 19:24N 38°30' W 008°50'0 0.0
2018-Jan-22 19:00N 38°30' W 008°50'0 0.0
2018-Jan-22 18:30N 38°30' W 008°50'0 0.0
2018-Jan-22 18:00N 38°30' W 008°50'0 0.0
2018-Jan-22 17:30N 38°30' W 008°50'0 0.0
2018-Jan-22 17:00N 38°30' W 008°50'0 0.0
2018-Jan-22 16:30N 38°30' W 008°50'0 0.0
2018-Jan-22 16:00N 38°30' W 008°50'0 0.0
2018-Jan-22 15:30N 38°30' W 008°50'0 0.0
2018-Jan-22 14:59N 38°30' W 008°50'0 0.0
2018-Jan-22 14:30N 38°30' W 008°50'0 0.0
2018-Jan-22 14:00N 38°30' W 008°50'0 0.0
2018-Jan-22 13:27N 38°30' W 008°50'0 0.0
2018-Jan-22 13:00N 38°30' W 008°50'0 0.0
2018-Jan-22 12:31N 38°30' W 008°50'0 0.1
2018-Jan-22 12:01N 38°30' W 008°50'0 0.0
2018-Jan-22 11:30N 38°30' W 008°50'0 0.0
2018-Jan-22 10:57N 38°30' W 008°50'0 0.0
2018-Jan-22 10:27N 38°30' W 008°50'0 0.0
2018-Jan-22 10:00N 38°30' W 008°50'0 0.1
2018-Jan-22 09:20N 38°30' W 008°50'0 0.0
2018-Jan-22 08:50N 38°30' W 008°50'0 0.0
2018-Jan-22 08:23N 38°30' W 008°50'0 0.0
2018-Jan-22 08:00N 38°30' W 008°50'0 0.0
2018-Jan-22 07:29N 38°30' W 008°50'0 0.0
2018-Jan-22 06:57N 38°30' W 008°50'0 0.0
2018-Jan-22 06:25N 38°30' W 008°50'0 0.0
2018-Jan-22 06:00N 38°30' W 008°50'0 0.0
2018-Jan-22 05:30N 38°30' W 008°50'0 0.0
2018-Jan-22 04:58N 38°30' W 008°50'0 0.0
2018-Jan-22 04:28N 38°30' W 008°50'0 0.0
2018-Jan-22 04:00N 38°30' W 008°50'0 0.0
2018-Jan-22 03:30N 38°30' W 008°50'0 0.0
2018-Jan-22 02:57N 38°30' W 008°50'0 0.0
2018-Jan-22 02:30N 38°30' W 008°50'0 0.0
2018-Jan-22 02:00N 38°30' W 008°50'0 0.0
2018-Jan-22 01:28N 38°30' W 008°50'0 0.0
2018-Jan-22 01:00N 38°30' W 008°50'0 0.0
2018-Jan-22 00:30N 38°30' W 008°50'0 0.0
2018-Jan-21 23:58N 38°30' W 008°50'0 1.0
2018-Jan-21 23:30N 38°30' W 008°51'1 2.2
2018-Jan-21 22:58N 38°31' W 008°52'2 3.9
2018-Jan-21 22:28N 38°31' W 008°54'1 2.1
2018-Jan-21 22:00N 38°31' W 008°53'3 5.2
2018-Jan-21 21:30N 38°30' W 008°50'0 0.0
2018-Jan-21 20:56N 38°30' W 008°50'0 0.0
2018-Jan-21 20:30N 38°30' W 008°50'0 0.0
2018-Jan-21 20:00N 38°30' W 008°50'0 0.0
2018-Jan-21 19:30N 38°30' W 008°50'0 0.0
2018-Jan-21 18:59N 38°30' W 008°50'0 0.0
2018-Jan-21 18:30N 38°30' W 008°50'2 3.0
2018-Jan-21 18:01N 38°31' W 008°52'1 2.2
2018-Jan-21 17:28N 38°30' W 008°51'0 0.7
2018-Jan-21 17:00N 38°30' W 008°50'0 0.0
2018-Jan-21 16:26N 38°30' W 008°50'0 0.0
2018-Jan-21 15:58N 38°30' W 008°50'0 0.0
2018-Jan-21 15:31N 38°30' W 008°50'0 0.0
2018-Jan-21 14:53N 38°30' W 008°50'0 0.0
2018-Jan-21 14:29N 38°30' W 008°50'0 0.0
2018-Jan-21 13:59N 38°30' W 008°50'0 0.0
2018-Jan-21 13:27N 38°30' W 008°50'2 3.7
2018-Jan-21 13:00N 38°31' W 008°52'2 1.6
2018-Jan-21 11:56N 38°30' W 008°50'0 0.0
2018-Jan-21 11:29N 38°30' W 008°50'0 0.0
2018-Jan-21 10:56N 38°30' W 008°50'0 0.0
2018-Jan-21 10:28N 38°30' W 008°50'0 0.0
2018-Jan-21 09:53N 38°30' W 008°50'0 0.0
2018-Jan-21 09:29N 38°30' W 008°50'0 0.0
2018-Jan-21 08:55N 38°30' W 008°50'0 0.0
2018-Jan-21 08:29N 38°30' W 008°50'0 0.0
2018-Jan-21 08:00N 38°30' W 008°50'0 0.0
2018-Jan-21 07:30N 38°30' W 008°50'0 0.0
2018-Jan-21 07:01N 38°30' W 008°50'2 2.0
2018-Jan-21 06:16N 38°31' W 008°52'0 0.6
2018-Jan-21 06:00N 38°31' W 008°52'1 2.1
2018-Jan-21 05:20N 38°31' W 008°54'0 1.2
2018-Jan-21 05:00N 38°31' W 008°53'3 4.9
2018-Jan-21 04:27N 38°30' W 008°50'0 0.0
2018-Jan-21 03:58N 38°30' W 008°50'0 0.0
2018-Jan-21 03:30N 38°30' W 008°50'0 0.0
2018-Jan-21 03:00N 38°30' W 008°50'0 0.0
2018-Jan-21 02:30N 38°30' W 008°50'0 0.0
2018-Jan-21 02:00N 38°30' W 008°50'0 0.0
2018-Jan-21 01:29N 38°30' W 008°50'0 0.0
2018-Jan-21 01:00N 38°30' W 008°50'2 3.3
2018-Jan-21 00:30N 38°31' W 008°52'1 2.4
2018-Jan-21 00:00N 38°31' W 008°53'0 0.8
2018-Jan-20 23:23N 38°31' W 008°54'1 2.0
2018-Jan-20 23:00N 38°31' W 008°53'2 4.8
2018-Jan-20 22:30N 38°30' W 008°50'0 0.0
2018-Jan-20 21:50N 38°30' W 008°50'0 0.0
2018-Jan-20 21:22N 38°30' W 008°50'0 0.0
2018-Jan-20 20:47N 38°30' W 008°50'0 0.0
2018-Jan-20 20:30N 38°30' W 008°50'0 0.0
2018-Jan-20 19:58N 38°30' W 008°50'0 0.0
2018-Jan-20 19:30N 38°30' W 008°50'0 0.0
2018-Jan-20 19:00N 38°30' W 008°50'0 0.0
2018-Jan-20 18:20N 38°30' W 008°50'0 0.0
2018-Jan-20 18:00N 38°30' W 008°50'0 0.0
2018-Jan-20 17:30N 38°30' W 008°50'0 0.0
2018-Jan-20 17:00N 38°30' W 008°50'0 0.0
2018-Jan-20 16:30N 38°30' W 008°50'0 0.0
2018-Jan-20 16:00N 38°30' W 008°50'0 0.0
2018-Jan-20 15:30N 38°30' W 008°50'0 0.0
2018-Jan-20 15:00N 38°30' W 008°50'0 0.0
2018-Jan-20 14:30N 38°30' W 008°50'0 0.0
2018-Jan-20 14:00N 38°30' W 008°50'0 0.0
2018-Jan-20 13:30N 38°30' W 008°50'0 0.0
2018-Jan-20 13:00N 38°30' W 008°50'0 0.0
2018-Jan-20 12:29N 38°30' W 008°50'0 0.0
2018-Jan-20 12:00N 38°30' W 008°50'0 0.0
2018-Jan-20 11:27N 38°30' W 008°50'0 0.0
2018-Jan-20 11:00N 38°30' W 008°50'0 0.0
2018-Jan-20 10:30N 38°30' W 008°50'0 0.0
2018-Jan-20 10:01N 38°30' W 008°50'0 0.0
2018-Jan-20 09:30N 38°30' W 008°50'0 0.0
2018-Jan-20 09:01N 38°30' W 008°50'0 0.0
2018-Jan-20 08:29N 38°30' W 008°50'0 0.0
2018-Jan-20 08:00N 38°30' W 008°50'0 0.0
2018-Jan-20 07:30N 38°30' W 008°50'0 0.0
2018-Jan-20 07:00N 38°30' W 008°50'0 0.0
2018-Jan-20 06:30N 38°30' W 008°50'0 0.0
2018-Jan-20 06:00N 38°30' W 008°50'0 0.0
2018-Jan-20 05:31N 38°30' W 008°50'0 0.0
2018-Jan-20 05:01N 38°30' W 008°50'0 0.0
2018-Jan-20 04:31N 38°30' W 008°50'0 0.0
2018-Jan-20 04:01N 38°30' W 008°50'0 0.0
2018-Jan-20 03:30N 38°30' W 008°50'0 0.0
2018-Jan-20 03:00N 38°30' W 008°50'0 0.0
2018-Jan-20 02:29N 38°30' W 008°50'0 0.0
2018-Jan-20 02:00N 38°30' W 008°50'0 0.0
2018-Jan-20 01:30N 38°30' W 008°50'0 0.0
2018-Jan-20 00:59N 38°30' W 008°50'0 0.0
2018-Jan-20 00:26N 38°30' W 008°50'0 0.0
2018-Jan-20 00:01N 38°30' W 008°50'0 0.0
2018-Jan-19 23:29N 38°30' W 008°50'0 0.0
2018-Jan-19 22:59N 38°30' W 008°50'0 0.0
2018-Jan-19 22:29N 38°30' W 008°50'0 0.0
2018-Jan-19 22:00N 38°30' W 008°50'0 0.0
2018-Jan-19 21:31N 38°30' W 008°50'0 0.0
2018-Jan-19 21:00N 38°30' W 008°50'0 0.0
2018-Jan-19 20:30N 38°30' W 008°50'0 0.0
2018-Jan-19 20:00N 38°30' W 008°50'0 0.0
2018-Jan-19 19:30N 38°30' W 008°50'0 0.0
2018-Jan-19 19:00N 38°30' W 008°50'0 0.0
2018-Jan-19 18:31N 38°30' W 008°50'0 0.0
2018-Jan-19 17:50N 38°30' W 008°50'0 0.0
2018-Jan-19 17:30N 38°30' W 008°50'0 0.0
2018-Jan-19 16:56N 38°30' W 008°50'0 0.0
2018-Jan-19 16:17N 38°30' W 008°50'0 0.0
2018-Jan-19 15:57N 38°30' W 008°50'0 0.0
2018-Jan-19 15:29N 38°30' W 008°50'0 0.0
2018-Jan-19 15:00N 38°30' W 008°50'0 0.0
2018-Jan-19 14:29N 38°30' W 008°50'0 0.0
2018-Jan-19 13:59N 38°30' W 008°50'0 0.0
2018-Jan-19 13:28N 38°30' W 008°50'0 0.0
2018-Jan-19 12:59N 38°30' W 008°50'0 0.0
2018-Jan-19 12:30N 38°30' W 008°50'0 0.0
2018-Jan-19 11:59N 38°30' W 008°50'0 0.0
2018-Jan-19 11:13N 38°30' W 008°50'0 0.0
2018-Jan-19 10:54N 38°30' W 008°50'0 0.0
2018-Jan-19 10:29N 38°30' W 008°50'0 0.0
2018-Jan-19 09:55N 38°30' W 008°50'0 0.0
2018-Jan-19 09:25N 38°30' W 008°50'0 0.0
2018-Jan-19 08:53N 38°30' W 008°50'0 0.0
2018-Jan-19 08:14N 38°30' W 008°50'0 0.0
2018-Jan-19 08:00N 38°30' W 008°50'0 0.0
2018-Jan-19 07:30N 38°30' W 008°50'0 0.0
2018-Jan-19 06:56N 38°30' W 008°50'0 0.0
2018-Jan-19 06:30N 38°30' W 008°50'0 0.0
2018-Jan-19 06:01N 38°30' W 008°50'0 0.0
2018-Jan-19 05:18N 38°30' W 008°50'0 0.0
2018-Jan-19 04:42N 38°30' W 008°50'0 0.0
2018-Jan-19 04:25N 38°30' W 008°50'0 0.0
2018-Jan-19 03:49N 38°30' W 008°50'0 0.0
2018-Jan-19 03:30N 38°30' W 008°50'0 0.0
2018-Jan-19 03:00N 38°30' W 008°50'0 0.0
2018-Jan-19 02:30N 38°30' W 008°50'0 0.0
2018-Jan-19 01:59N 38°30' W 008°50'0 0.0
2018-Jan-19 01:29N 38°30' W 008°50'2 3.2
2018-Jan-19 01:00N 38°31' W 008°52'2 2.9
2018-Jan-19 00:28N 38°30' W 008°50'0 0.0
2018-Jan-19 00:01N 38°30' W 008°50'0 0.0
2018-Jan-18 23:25N 38°30' W 008°50'0 0.0
2018-Jan-18 23:00N 38°30' W 008°50'0 0.0
2018-Jan-18 22:27N 38°30' W 008°50'0 0.0
2018-Jan-18 21:58N 38°30' W 008°50'0 0.0
2018-Jan-18 21:30N 38°30' W 008°50'0 0.0
2018-Jan-18 21:00N 38°30' W 008°50'0 0.0
2018-Jan-18 20:26N 38°30' W 008°50'0 0.0
2018-Jan-18 20:00N 38°30' W 008°50'0 0.0
2018-Jan-18 19:30N 38°30' W 008°50'0 0.0
2018-Jan-18 19:00N 38°30' W 008°50'0 0.0
2018-Jan-18 18:30N 38°30' W 008°50'0 0.0
2018-Jan-18 18:00N 38°30' W 008°50'0 0.0
2018-Jan-18 17:30N 38°30' W 008°50'0 0.0
2018-Jan-18 17:00N 38°30' W 008°50'0 0.0
2018-Jan-18 16:26N 38°30' W 008°50'0 0.0
2018-Jan-18 15:57N 38°30' W 008°50'0 0.0
2018-Jan-18 15:30N 38°30' W 008°50'0 0.0
2018-Jan-18 14:57N 38°30' W 008°50'0 0.0
2018-Jan-18 14:30N 38°30' W 008°50'0 0.0
2018-Jan-18 13:55N 38°30' W 008°50'0 0.0
2018-Jan-18 13:30N 38°30' W 008°50'0 0.0
2018-Jan-18 13:00N 38°30' W 008°50'0 0.0
2018-Jan-18 12:30N 38°30' W 008°50'0 0.0
2018-Jan-18 11:59N 38°30' W 008°50'0 0.0
2018-Jan-18 11:30N 38°30' W 008°50'0 0.0
2018-Jan-18 11:01N 38°30' W 008°50'0 0.0
2018-Jan-18 10:31N 38°30' W 008°50'0 0.0
2018-Jan-18 10:00N 38°30' W 008°50'0 0.0
2018-Jan-18 09:30N 38°30' W 008°50'0 0.0
2018-Jan-18 09:00N 38°30' W 008°50'0 0.0
2018-Jan-18 08:31N 38°30' W 008°50'0 0.0
2018-Jan-18 08:00N 38°30' W 008°50'0 0.0
2018-Jan-18 07:30N 38°30' W 008°50'0 0.0
2018-Jan-18 07:00N 38°30' W 008°50'0 0.0
2018-Jan-18 06:29N 38°30' W 008°50'0 0.0
2018-Jan-18 06:01N 38°30' W 008°50'0 0.0
2018-Jan-18 05:31N 38°30' W 008°50'0 0.0
2018-Jan-18 05:00N 38°30' W 008°50'0 0.0
2018-Jan-18 04:31N 38°30' W 008°50'0 0.0
2018-Jan-18 04:01N 38°30' W 008°50'0 0.0
2018-Jan-18 03:31N 38°30' W 008°50'0 0.0
2018-Jan-18 03:00N 38°30' W 008°50'0 0.0
2018-Jan-18 02:30N 38°30' W 008°50'0 0.0
2018-Jan-18 02:00N 38°30' W 008°50'0 0.0
2018-Jan-18 01:25N 38°30' W 008°50'0 0.0
2018-Jan-18 01:00N 38°30' W 008°50'0 0.0
2018-Jan-17 23:49N 38°30' W 008°50'  

Dump ship's entire track history